Chemical Pioneer — KAFO — position and weather

sailwx.info

Track history (hours):
 
Tides and Currents Weather Stations Pressure Air Temp Water Temp Dewpoint Dewpoint Depression Visibility Wind Speed Wind Dir Waves Ship Positions

Chemical Pioneer

Owner: US Shipping Corp, Edison, NJ. More information available from US FCC via Universal Licensing System and Coast Guard Vessel Documentation Center.

Last reported at 2014-Dec-16 21:28 UTC. Time now 2014-Dec-21 04:04 UTC.
Position N 35°02' W 075°19'.

Type: Tanker. MMSI: 366032000.

Date/timePositionNaut miles runAvg speedWind from/ knotsBaromVisibWave heightAir tempDewpointWater temp
2014-Dec-16 21:28N 35°02' W 075°19'32 9.9
2014-Dec-16 18:17N 34°41' W 075°47'710.1
2014-Dec-16 17:33N 34°36' W 075°54'19 9.4
2014-Dec-16 15:33N 34°23' W 076°10'9 9.4
2014-Dec-16 14:34N 34°16' W 076°18'40 6.6
2014-Dec-16 08:27N 33°48' W 076°53'4 4.4
2014-Dec-16 07:33N 33°45' W 076°57'26 1.8
2014-Dec-15 17:20N 34°03' W 076°34'1215.3
2014-Dec-15 16:33N 34°12' W 076°23'1716.0
2014-Dec-15 15:28N 34°24' W 076°08'1516.1
2014-Dec-15 14:33N 34°34' W 075°55'  
2014-Dec-11 21:07N 39°19' W 074°09'6 9.9
2014-Dec-11 20:33N 39°24' W 074°06'9 9.2
2014-Dec-11 19:33N 39°32' W 074°00'9 9.2
2014-Dec-11 18:33N 39°40' W 073°55'9 9.4
2014-Dec-11 17:33N 39°49' W 073°51'2210.2
2014-Dec-11 15:24N 40°11' W 073°49'10 9.5
2014-Dec-11 14:19N 40°21' W 073°50'810.0
2014-Dec-11 13:33N 40°27' W 073°56'1411.5
2014-Dec-11 12:22N 40°29' W 074°14'5 5.7
2014-Dec-11 11:33N 40°34' W 074°13'1 0.1
2014-Dec-10 17:20N 40°35' W 074°12'3 3.7
2014-Dec-10 16:33N 40°38' W 074°12'6 6.1
2014-Dec-10 15:33N 40°39' W 074°04'1 1.2
2014-Dec-10 14:31N 40°38' W 074°04'0 0.1
2014-Dec-10 13:31N 40°38' W 074°04'0 0.1
2014-Dec-10 12:31N 40°37' W 074°04'0 0.1
2014-Dec-10 11:31N 40°37' W 074°04'0 0.0
2014-Dec-10 10:31N 40°37' W 074°04'0 0.0
2014-Dec-10 09:31N 40°37' W 074°04'0 0.0
2014-Dec-10 08:31N 40°37' W 074°04'0 0.1
2014-Dec-10 07:31N 40°37' W 074°04'0 0.0
2014-Dec-10 06:31N 40°37' W 074°04'0 0.0
2014-Dec-10 05:31N 40°37' W 074°04'0 0.1
2014-Dec-10 04:31N 40°37' W 074°04'0 0.1
2014-Dec-10 03:31N 40°38' W 074°04'0 0.0
2014-Dec-10 02:31N 40°38' W 074°04'0 0.1
2014-Dec-10 01:31N 40°37' W 074°04'0 0.1
2014-Dec-10 00:31N 40°37' W 074°04'2 2.2
2014-Dec-09 23:33N 40°39' W 074°06'0 0.1
2014-Dec-09 22:27N 40°39' W 074°06'0 0.0
2014-Dec-09 21:33N 40°39' W 074°06'0 0.0
2014-Dec-09 20:33N 40°39' W 074°06'0 0.0
2014-Dec-09 19:30N 40°39' W 074°06'0 0.0
2014-Dec-09 18:33N 40°39' W 074°06'0 0.0
2014-Dec-09 17:30N 40°39' W 074°06'0 0.0
2014-Dec-09 16:30N 40°39' W 074°06'0 0.0
2014-Dec-09 15:31N 40°39' W 074°06'0 0.0
2014-Dec-09 14:33N 40°39' W 074°06'0 0.0
2014-Dec-09 13:15N 40°39' W 074°06'0 0.0
2014-Dec-09 12:30N 40°39' W 074°06'0 0.0
2014-Dec-09 11:33N 40°39' W 074°06'0 0.0
2014-Dec-09 10:33N 40°39' W 074°06'0 0.0
2014-Dec-09 09:33N 40°39' W 074°06'0 0.0
2014-Dec-09 08:30N 40°39' W 074°06'0 0.0
2014-Dec-09 07:30N 40°39' W 074°06'0 0.0
2014-Dec-09 06:30N 40°39' W 074°06'0 0.0
2014-Dec-09 05:33N 40°39' W 074°06'0 0.0
2014-Dec-09 04:33N 40°39' W 074°06'0 0.0
2014-Dec-09 03:33N 40°39' W 074°06'0 0.0
2014-Dec-09 02:30N 40°39' W 074°06'0 0.0
2014-Dec-09 01:33N 40°39' W 074°06'0 0.0
2014-Dec-09 00:33N 40°39' W 074°06'0 0.0
2014-Dec-08 23:33N 40°39' W 074°06'0 0.0
2014-Dec-08 22:33N 40°39' W 074°06'0 0.0
2014-Dec-08 21:33N 40°39' W 074°06'0 0.0
2014-Dec-08 20:21N 40°39' W 074°06'0 0.0
2014-Dec-08 19:33N 40°39' W 074°06'0 0.0
2014-Dec-08 18:27N 40°39' W 074°06'0 0.0
2014-Dec-08 17:33N 40°39' W 074°06'3 2.7
2014-Dec-08 16:34N 40°37' W 074°03'8 8.0
2014-Dec-08 15:34N 40°30' W 073°58'8 8.3
2014-Dec-08 14:33N 40°28' W 073°47'9 8.6
2014-Dec-08 13:34N 40°28' W 073°36'1110.9
2014-Dec-08 12:34N 40°29' W 073°22'1312.7
2014-Dec-08 11:33N 40°30' W 073°05'1413.8
2014-Dec-08 10:33N 40°30' W 072°47'1313.5
2014-Dec-08 09:33N 40°32' W 072°29'1514.8
2014-Dec-08 08:33N 40°39' W 072°13'1616.0
2014-Dec-08 07:33N 40°48' W 071°55'1212.4
2014-Dec-08 06:33N 40°54' W 071°41'10 9.9
2014-Dec-08 05:33N 40°60' W 071°30'9 8.6
2014-Dec-08 04:34N 41°08' W 071°25'1312.8
2014-Dec-08 03:34N 41°21' W 071°25'1312.8
2014-Dec-08 02:33N 41°33' W 071°20'1313.1
2014-Dec-08 01:33N 41°46' W 071°23'2 1.3
2014-Dec-08 00:09N 41°47' W 071°23'0 0.0
2014-Dec-07 23:33N 41°47' W 071°23'0 0.0
2014-Dec-07 22:27N 41°47' W 071°23'0 0.0
2014-Dec-07 21:33N 41°47' W 071°23'0 0.0
2014-Dec-07 20:12N 41°47' W 071°23'0 0.0
2014-Dec-07 19:24N 41°47' W 071°23'0 0.0
2014-Dec-07 18:12N 41°47' W 071°23'0 0.0
2014-Dec-07 17:24N 41°47' W 071°23'0 0.0
2014-Dec-07 16:30N 41°47' W 071°23'0 0.0
2014-Dec-07 15:30N 41°47' W 071°23'0 0.0
2014-Dec-07 14:30N 41°47' W 071°23'0 0.0
2014-Dec-07 13:30N 41°47' W 071°23'0 0.0
2014-Dec-07 12:30N 41°47' W 071°23'0 0.0
2014-Dec-07 11:30N 41°47' W 071°23'0 0.0
2014-Dec-07 10:30N 41°47' W 071°23'0 0.0
2014-Dec-07 09:30N 41°47' W 071°23'0 0.0
2014-Dec-07 08:30N 41°47' W 071°23'0 0.0
2014-Dec-07 07:30N 41°47' W 071°23'0 0.0
2014-Dec-07 06:30N 41°47' W 071°23'0 0.0
2014-Dec-07 05:30N 41°47' W 071°23'0 0.0
2014-Dec-07 04:30N 41°47' W 071°23'0 0.0
2014-Dec-07 03:30N 41°47' W 071°23'0 0.0
2014-Dec-07 02:30N 41°47' W 071°23'0 0.1
2014-Dec-07 01:33N 41°47' W 071°23'6 6.2
2014-Dec-07 00:33N 41°42' W 071°19'1313.2
2014-Dec-06 23:34N 41°29' W 071°21'1212.2
2014-Dec-06 22:33N 41°17' W 071°22'1110.6
2014-Dec-06 21:33N 41°06' W 071°21'  
Track history (hours):
 
Tides and Currents Weather Stations Pressure Air Temp Water Temp Dewpoint Dewpoint Depression Visibility Wind Speed Wind Dir Waves Ship Positions

Chemical Pioneer

Owner: US Shipping Corp, Edison, NJ. More information available from US FCC via Universal Licensing System and Coast Guard Vessel Documentation Center.

Last reported at 2014-Dec-16 21:28 UTC. Time now 2014-Dec-21 04:04 UTC.
Position N 35°02' W 075°19'.

Type: Tanker. MMSI: 366032000.

Date/timePositionNaut miles runAvg speedWind from/ knotsBaromVisibWave heightAir tempDewpointWater temp
2014-Dec-16 21:28N 35°02' W 075°19'32 9.9
2014-Dec-16 18:17N 34°41' W 075°47'710.1
2014-Dec-16 17:33N 34°36' W 075°54'19 9.4
2014-Dec-16 15:33N 34°23' W 076°10'9 9.4
2014-Dec-16 14:34N 34°16' W 076°18'40 6.6
2014-Dec-16 08:27N 33°48' W 076°53'4 4.4
2014-Dec-16 07:33N 33°45' W 076°57'26 1.8
2014-Dec-15 17:20N 34°03' W 076°34'1215.3
2014-Dec-15 16:33N 34°12' W 076°23'1716.0
2014-Dec-15 15:28N 34°24' W 076°08'1516.1
2014-Dec-15 14:33N 34°34' W 075°55'  
2014-Dec-11 21:07N 39°19' W 074°09'6 9.9
2014-Dec-11 20:33N 39°24' W 074°06'9 9.2
2014-Dec-11 19:33N 39°32' W 074°00'9 9.2
2014-Dec-11 18:33N 39°40' W 073°55'9 9.4
2014-Dec-11 17:33N 39°49' W 073°51'2210.2
2014-Dec-11 15:24N 40°11' W 073°49'10 9.5
2014-Dec-11 14:19N 40°21' W 073°50'810.0
2014-Dec-11 13:33N 40°27' W 073°56'1411.5
2014-Dec-11 12:22N 40°29' W 074°14'5 5.7
2014-Dec-11 11:33N 40°34' W 074°13'1 0.1
2014-Dec-10 17:20N 40°35' W 074°12'3 3.7
2014-Dec-10 16:33N 40°38' W 074°12'6 6.1
2014-Dec-10 15:33N 40°39' W 074°04'1 1.2
2014-Dec-10 14:31N 40°38' W 074°04'0 0.1
2014-Dec-10 13:31N 40°38' W 074°04'0 0.1
2014-Dec-10 12:31N 40°37' W 074°04'0 0.1
2014-Dec-10 11:31N 40°37' W 074°04'0 0.0
2014-Dec-10 10:31N 40°37' W 074°04'0 0.0
2014-Dec-10 09:31N 40°37' W 074°04'0 0.0
2014-Dec-10 08:31N 40°37' W 074°04'0 0.1
2014-Dec-10 07:31N 40°37' W 074°04'0 0.0
2014-Dec-10 06:31N 40°37' W 074°04'0 0.0
2014-Dec-10 05:31N 40°37' W 074°04'0 0.1
2014-Dec-10 04:31N 40°37' W 074°04'0 0.1
2014-Dec-10 03:31N 40°38' W 074°04'0 0.0
2014-Dec-10 02:31N 40°38' W 074°04'0 0.1
2014-Dec-10 01:31N 40°37' W 074°04'0 0.1
2014-Dec-10 00:31N 40°37' W 074°04'2 2.2
2014-Dec-09 23:33N 40°39' W 074°06'0 0.1
2014-Dec-09 22:27N 40°39' W 074°06'0 0.0
2014-Dec-09 21:33N 40°39' W 074°06'0 0.0
2014-Dec-09 20:33N 40°39' W 074°06'0 0.0
2014-Dec-09 19:30N 40°39' W 074°06'0 0.0
2014-Dec-09 18:33N 40°39' W 074°06'0 0.0
2014-Dec-09 17:30N 40°39' W 074°06'0 0.0
2014-Dec-09 16:30N 40°39' W 074°06'0 0.0
2014-Dec-09 15:31N 40°39' W 074°06'0 0.0
2014-Dec-09 14:33N 40°39' W 074°06'0 0.0
2014-Dec-09 13:15N 40°39' W 074°06'0 0.0
2014-Dec-09 12:30N 40°39' W 074°06'0 0.0
2014-Dec-09 11:33N 40°39' W 074°06'0 0.0
2014-Dec-09 10:33N 40°39' W 074°06'0 0.0
2014-Dec-09 09:33N 40°39' W 074°06'0 0.0
2014-Dec-09 08:30N 40°39' W 074°06'0 0.0
2014-Dec-09 07:30N 40°39' W 074°06'0 0.0
2014-Dec-09 06:30N 40°39' W 074°06'0 0.0
2014-Dec-09 05:33N 40°39' W 074°06'0 0.0
2014-Dec-09 04:33N 40°39' W 074°06'0 0.0
2014-Dec-09 03:33N 40°39' W 074°06'0 0.0
2014-Dec-09 02:30N 40°39' W 074°06'0 0.0
2014-Dec-09 01:33N 40°39' W 074°06'0 0.0
2014-Dec-09 00:33N 40°39' W 074°06'0 0.0
2014-Dec-08 23:33N 40°39' W 074°06'0 0.0
2014-Dec-08 22:33N 40°39' W 074°06'0 0.0
2014-Dec-08 21:33N 40°39' W 074°06'0 0.0
2014-Dec-08 20:21N 40°39' W 074°06'0 0.0
2014-Dec-08 19:33N 40°39' W 074°06'0 0.0
2014-Dec-08 18:27N 40°39' W 074°06'0 0.0
2014-Dec-08 17:33N 40°39' W 074°06'3 2.7
2014-Dec-08 16:34N 40°37' W 074°03'8 8.0
2014-Dec-08 15:34N 40°30' W 073°58'8 8.3
2014-Dec-08 14:33N 40°28' W 073°47'9 8.6
2014-Dec-08 13:34N 40°28' W 073°36'1110.9
2014-Dec-08 12:34N 40°29' W 073°22'1312.7
2014-Dec-08 11:33N 40°30' W 073°05'1413.8
2014-Dec-08 10:33N 40°30' W 072°47'1313.5
2014-Dec-08 09:33N 40°32' W 072°29'1514.8
2014-Dec-08 08:33N 40°39' W 072°13'1616.0
2014-Dec-08 07:33N 40°48' W 071°55'1212.4
2014-Dec-08 06:33N 40°54' W 071°41'10 9.9
2014-Dec-08 05:33N 40°60' W 071°30'9 8.6
2014-Dec-08 04:34N 41°08' W 071°25'1312.8
2014-Dec-08 03:34N 41°21' W 071°25'1312.8
2014-Dec-08 02:33N 41°33' W 071°20'1313.1
2014-Dec-08 01:33N 41°46' W 071°23'2 1.3
2014-Dec-08 00:09N 41°47' W 071°23'0 0.0
2014-Dec-07 23:33N 41°47' W 071°23'0 0.0
2014-Dec-07 22:27N 41°47' W 071°23'0 0.0
2014-Dec-07 21:33N 41°47' W 071°23'0 0.0
2014-Dec-07 20:12N 41°47' W 071°23'0 0.0
2014-Dec-07 19:24N 41°47' W 071°23'0 0.0
2014-Dec-07 18:12N 41°47' W 071°23'0 0.0
2014-Dec-07 17:24N 41°47' W 071°23'0 0.0
2014-Dec-07 16:30N 41°47' W 071°23'0 0.0
2014-Dec-07 15:30N 41°47' W 071°23'0 0.0
2014-Dec-07 14:30N 41°47' W 071°23'0 0.0
2014-Dec-07 13:30N 41°47' W 071°23'0 0.0
2014-Dec-07 12:30N 41°47' W 071°23'0 0.0
2014-Dec-07 11:30N 41°47' W 071°23'0 0.0
2014-Dec-07 10:30N 41°47' W 071°23'0 0.0
2014-Dec-07 09:30N 41°47' W 071°23'0 0.0
2014-Dec-07 08:30N 41°47' W 071°23'0 0.0
2014-Dec-07 07:30N 41°47' W 071°23'0 0.0
2014-Dec-07 06:30N 41°47' W 071°23'0 0.0
2014-Dec-07 05:30N 41°47' W 071°23'0 0.0
2014-Dec-07 04:30N 41°47' W 071°23'0 0.0
2014-Dec-07 03:30N 41°47' W 071°23'0 0.0
2014-Dec-07 02:30N 41°47' W 071°23'0 0.1
2014-Dec-07 01:33N 41°47' W 071°23'6 6.2
2014-Dec-07 00:33N 41°42' W 071°19'1313.2
2014-Dec-06 23:34N 41°29' W 071°21'1212.2
2014-Dec-06 22:33N 41°17' W 071°22'1110.6
2014-Dec-06 21:33N 41°06' W 071°21'  

Dump ship's entire track history